sensor_id;sensor_type;location;lat;lon;timestamp;pressure;altitude;pressure_sealevel;temperature;humidity
76046;BME280;64741;41.730;44.788;2022-11-21T00:04:39;1000.3;;;22.3;41.7
76046;BME280;64741;41.730;44.788;2022-11-21T00:09:41;1000.2;;;22.3;41.7
76046;BME280;64741;41.730;44.788;2022-11-21T00:14:32;1000.2;;;22.3;41.8
76046;BME280;64741;41.730;44.788;2022-11-21T00:19:29;1000.2;;;22.3;41.8
76046;BME280;64741;41.730;44.788;2022-11-21T00:24:41;1000.2;;;22.3;41.7
76046;BME280;64741;41.730;44.788;2022-11-21T00:29:39;1000.2;;;22.3;41.5
76046;BME280;64741;41.730;44.788;2022-11-21T00:34:43;1000.1;;;22.3;41.7
76046;BME280;64741;41.730;44.788;2022-11-21T00:39:39;1000;;;22.3;41.6
76046;BME280;64741;41.730;44.788;2022-11-21T00:44:39;999.9;;;22.3;41.6
76046;BME280;64741;41.730;44.788;2022-11-21T00:49:39;999.9;;;22.3;41.7
76046;BME280;64741;41.730;44.788;2022-11-21T00:54:41;999.8;;;22.3;41.4
76046;BME280;64741;41.730;44.788;2022-11-21T00:59:35;999.8;;;22.3;41.7
76046;BME280;64741;41.730;44.788;2022-11-21T01:04:37;999.8;;;22.3;41.7
76046;BME280;64741;41.730;44.788;2022-11-21T01:09:39;999.9;;;22.2;41.5
76046;BME280;64741;41.730;44.788;2022-11-21T01:14:39;999.9;;;22.3;41.4
76046;BME280;64741;41.730;44.788;2022-11-21T01:19:39;1000;;;22.3;41.4
76046;BME280;64741;41.730;44.788;2022-11-21T01:24:39;1000;;;22.2;41.4
76046;BME280;64741;41.730;44.788;2022-11-21T01:29:43;999.9;;;22.2;41.3
76046;BME280;64741;41.730;44.788;2022-11-21T01:34:43;999.8;;;22.2;41.4
76046;BME280;64741;41.730;44.788;2022-11-21T01:39:43;999.7;;;22.2;41.3
76046;BME280;64741;41.730;44.788;2022-11-21T01:44:44;999.6;;;22.2;41.2
76046;BME280;64741;41.730;44.788;2022-11-21T01:49:45;999.6;;;22.2;41.2
76046;BME280;64741;41.730;44.788;2022-11-21T01:54:41;999.6;;;22.2;41.2
76046;BME280;64741;41.730;44.788;2022-11-21T01:59:41;999.6;;;22.2;41
76046;BME280;64741;41.730;44.788;2022-11-21T02:04:43;999.6;;;22.2;40.8
76046;BME280;64741;41.730;44.788;2022-11-21T02:09:43;999.6;;;22.2;40.7
76046;BME280;64741;41.730;44.788;2022-11-21T02:14:41;999.6;;;22.2;40.7
76046;BME280;64741;41.730;44.788;2022-11-21T02:19:42;999.6;;;22.2;40.6
76046;BME280;64741;41.730;44.788;2022-11-21T02:24:42;999.6;;;22.2;40.7
76046;BME280;64741;41.730;44.788;2022-11-21T02:29:41;999.5;;;22.2;40.7
76046;BME280;64741;41.730;44.788;2022-11-21T02:34:41;999.5;;;22.2;40.4
76046;BME280;64741;41.730;44.788;2022-11-21T02:39:41;999.4;;;22.2;40.4
76046;BME280;64741;41.730;44.788;2022-11-21T02:44:42;999.3;;;22.2;40.3
76046;BME280;64741;41.730;44.788;2022-11-21T02:49:44;999.2;;;22.2;40.3
76046;BME280;64741;41.730;44.788;2022-11-21T02:54:41;999.3;;;22.2;40.2
76046;BME280;64741;41.730;44.788;2022-11-21T02:59:41;999.3;;;22.2;40.1
76046;BME280;64741;41.730;44.788;2022-11-21T03:04:41;999.2;;;22.2;40.1
76046;BME280;64741;41.730;44.788;2022-11-21T03:09:43;999.3;;;22.2;40.3
76046;BME280;64741;41.730;44.788;2022-11-21T03:14:43;999.2;;;22.2;39.9
76046;BME280;64741;41.730;44.788;2022-11-21T03:19:41;999.2;;;22.1;40.4
76046;BME280;64741;41.730;44.788;2022-11-21T03:24:01;999.3;;;22.1;40.1
76046;BME280;64741;41.730;44.788;2022-11-21T03:29:41;999.2;;;22.1;40.1
76046;BME280;64741;41.730;44.788;2022-11-21T03:34:41;999.2;;;22.2;40.1
76046;BME280;64741;41.730;44.788;2022-11-21T03:39:41;999.1;;;22.1;40.2
76046;BME280;64741;41.730;44.788;2022-11-21T03:44:43;999.2;;;22.1;40
76046;BME280;64741;41.730;44.788;2022-11-21T03:49:41;999.1;;;22.1;40.1
76046;BME280;64741;41.730;44.788;2022-11-21T03:54:39;999.1;;;22.1;39.9
76046;BME280;64741;41.730;44.788;2022-11-21T03:59:41;999.1;;;22.1;40
76046;BME280;64741;41.730;44.788;2022-11-21T04:04:43;999.1;;;22.1;39.9
76046;BME280;64741;41.730;44.788;2022-11-21T04:09:39;999.1;;;22.1;39.9
76046;BME280;64741;41.730;44.788;2022-11-21T04:14:39;999;;;22.1;39.8
76046;BME280;64741;41.730;44.788;2022-11-21T04:19:33;998.9;;;22.1;39.9
76046;BME280;64741;41.730;44.788;2022-11-21T04:24:43;998.8;;;22.1;39.8
76046;BME280;64741;41.730;44.788;2022-11-21T04:29:41;998.9;;;22.1;39.7
76046;BME280;64741;41.730;44.788;2022-11-21T04:34:43;998.9;;;22.1;39.8
76046;BME280;64741;41.730;44.788;2022-11-21T04:39:41;998.9;;;22.1;39.7
76046;BME280;64741;41.730;44.788;2022-11-21T04:44:41;998.8;;;22.1;39.6
76046;BME280;64741;41.730;44.788;2022-11-21T04:49:41;998.8;;;22.1;39.6
76046;BME280;64741;41.730;44.788;2022-11-21T04:54:39;998.8;;;22.1;39.8
76046;BME280;64741;41.730;44.788;2022-11-21T04:59:41;998.8;;;22.1;39.8
76046;BME280;64741;41.730;44.788;2022-11-21T05:04:39;998.7;;;22.1;39.7
76046;BME280;64741;41.730;44.788;2022-11-21T05:09:21;998.7;;;22.1;39.7
76046;BME280;64741;41.730;44.788;2022-11-21T05:14:37;998.6;;;22.1;39.6
76046;BME280;64741;41.730;44.788;2022-11-21T05:19:41;998.6;;;22.1;39.5
76046;BME280;64741;41.730;44.788;2022-11-21T05:24:29;998.7;;;22.1;39.7
76046;BME280;64741;41.730;44.788;2022-11-21T05:29:39;998.6;;;22.1;39.5
76046;BME280;64741;41.730;44.788;2022-11-21T05:34:41;998.6;;;22.1;39.2
76046;BME280;64741;41.730;44.788;2022-11-21T05:39:29;998.6;;;22.1;39.5
76046;BME280;64741;41.730;44.788;2022-11-21T05:44:41;998.5;;;22.1;39.6
76046;BME280;64741;41.730;44.788;2022-11-21T05:49:39;998.5;;;22.1;39.6
76046;BME280;64741;41.730;44.788;2022-11-21T05:54:41;998.5;;;22.1;39.6
76046;BME280;64741;41.730;44.788;2022-11-21T05:59:41;998.4;;;22.1;39.6
76046;BME280;64741;41.730;44.788;2022-11-21T06:04:35;998.4;;;22.1;39.5
76046;BME280;64741;41.730;44.788;2022-11-21T06:09:39;998.3;;;22.1;39.6
76046;BME280;64741;41.730;44.788;2022-11-21T06:14:31;998.2;;;22.1;39.7
76046;BME280;64741;41.730;44.788;2022-11-21T06:19:39;998.3;;;22.1;39.7
76046;BME280;64741;41.730;44.788;2022-11-21T06:24:37;998.3;;;22.1;39.7
76046;BME280;64741;41.730;44.788;2022-11-21T06:29:39;998.3;;;22.1;39.6
76046;BME280;64741;41.730;44.788;2022-11-21T06:34:39;998.2;;;22.1;39.7
76046;BME280;64741;41.730;44.788;2022-11-21T06:39:41;998.2;;;22.1;39.7
76046;BME280;64741;41.730;44.788;2022-11-21T06:44:37;998.2;;;22.2;39.8
76046;BME280;64741;41.730;44.788;2022-11-21T06:49:41;998.1;;;22.1;39.8
76046;BME280;64741;41.730;44.788;2022-11-21T06:54:39;998.1;;;22.2;39.8
76046;BME280;64741;41.730;44.788;2022-11-21T06:59:39;998;;;22.2;40.1
76046;BME280;64741;41.730;44.788;2022-11-21T07:04:41;997.9;;;22.2;39.9
76046;BME280;64741;41.730;44.788;2022-11-21T07:09:29;998;;;22.2;39.8
76046;BME280;64741;41.730;44.788;2022-11-21T07:14:41;997.9;;;22.2;40
76046;BME280;64741;41.730;44.788;2022-11-21T07:19:41;997.9;;;22.2;40.1
76046;BME280;64741;41.730;44.788;2022-11-21T07:24:41;997.9;;;22.2;40
76046;BME280;64741;41.730;44.788;2022-11-21T07:29:43;997.8;;;22.2;40.2
76046;BME280;64741;41.730;44.788;2022-11-21T07:34:39;997.7;;;22.2;40.2
76046;BME280;64741;41.730;44.788;2022-11-21T07:39:43;997.7;;;22.2;40.2
76046;BME280;64741;41.730;44.788;2022-11-21T07:44:39;997.7;;;22.2;40.2
76046;BME280;64741;41.730;44.788;2022-11-21T07:49:41;997.6;;;22.2;40.3
76046;BME280;64741;41.730;44.788;2022-11-21T07:54:41;997.5;;;22.2;40.3
76046;BME280;64741;41.730;44.788;2022-11-21T07:59:41;997.4;;;22.2;40.3
76046;BME280;64741;41.730;44.788;2022-11-21T08:04:41;997.3;;;22.2;40.3
76046;BME280;64741;41.730;44.788;2022-11-21T08:09:43;997.2;;;22.2;40.2
76046;BME280;64741;41.730;44.788;2022-11-21T08:14:41;997.1;;;22.2;40.3
76046;BME280;64741;41.730;44.788;2022-11-21T08:19:41;997;;;22.2;40.3
76046;BME280;64741;41.730;44.788;2022-11-21T08:24:41;996.9;;;22.2;40.2
76046;BME280;64741;41.730;44.788;2022-11-21T08:29:31;996.8;;;22.2;40.1
76046;BME280;64741;41.730;44.788;2022-11-21T08:34:41;996.8;;;22.2;39.9
76046;BME280;64741;41.730;44.788;2022-11-21T08:39:41;996.6;;;22.2;40.1
76046;BME280;64741;41.730;44.788;2022-11-21T08:44:43;996.5;;;22.3;40
76046;BME280;64741;41.730;44.788;2022-11-21T08:49:43;996.4;;;22.3;40
76046;BME280;64741;41.730;44.788;2022-11-21T08:54:43;996.3;;;22.3;40.1
76046;BME280;64741;41.730;44.788;2022-11-21T08:59:39;996.3;;;22.3;40.1
76046;BME280;64741;41.730;44.788;2022-11-21T09:04:41;996.2;;;22.3;40.8
76046;BME280;64741;41.730;44.788;2022-11-21T09:09:43;996.1;;;22.3;40.8
76046;BME280;64741;41.730;44.788;2022-11-21T09:14:43;996;;;22.4;41.1
76046;BME280;64741;41.730;44.788;2022-11-21T09:19:43;995.8;;;22.4;41.3
76046;BME280;64741;41.730;44.788;2022-11-21T09:24:39;995.7;;;22.4;41.5
76046;BME280;64741;41.730;44.788;2022-11-21T09:29:39;995.7;;;22.5;41.6
76046;BME280;64741;41.730;44.788;2022-11-21T09:34:43;995.6;;;22.5;41.8
76046;BME280;64741;41.730;44.788;2022-11-21T09:39:39;995.5;;;22.5;41.9
76046;BME280;64741;41.730;44.788;2022-11-21T09:44:48;995.4;;;22.5;42
76046;BME280;64741;41.730;44.788;2022-11-21T09:49:39;995.3;;;22.6;41.9
76046;BME280;64741;41.730;44.788;2022-11-21T09:54:40;995.3;;;22.6;41.8
76046;BME280;64741;41.730;44.788;2022-11-21T09:59:45;995.3;;;22.6;41.8
76046;BME280;64741;41.730;44.788;2022-11-21T10:04:43;995.1;;;22.6;41.8
76046;BME280;64741;41.730;44.788;2022-11-21T10:09:47;995;;;22.6;41.7
76046;BME280;64741;41.730;44.788;2022-11-21T10:14:45;995;;;22.7;41.7
76046;BME280;64741;41.730;44.788;2022-11-21T10:19:42;995;;;22.7;41.4
76046;BME280;64741;41.730;44.788;2022-11-21T10:24:45;995;;;22.7;41.2
76046;BME280;64741;41.730;44.788;2022-11-21T10:29:43;995.1;;;22.6;41
76046;BME280;64741;41.730;44.788;2022-11-21T10:34:43;995;;;22.6;40.9
76046;BME280;64741;41.730;44.788;2022-11-21T10:39:43;994.9;;;22.6;40.7
76046;BME280;64741;41.730;44.788;2022-11-21T10:44:41;994.9;;;22.6;40.6
76046;BME280;64741;41.730;44.788;2022-11-21T10:49:43;994.8;;;22.6;40.6
76046;BME280;64741;41.730;44.788;2022-11-21T10:55:00;994.9;;;22.6;40.5
76046;BME280;64741;41.730;44.788;2022-11-21T11:00:00;994.7;;;22.6;40.5
76046;BME280;64741;41.730;44.788;2022-11-21T11:04:41;994.7;;;22.6;40.5
76046;BME280;64741;41.730;44.788;2022-11-21T11:09:43;994.6;;;22.5;40.5
76046;BME280;64741;41.730;44.788;2022-11-21T11:14:41;994.6;;;22.5;40.5
76046;BME280;64741;41.730;44.788;2022-11-21T11:19:59;994.6;;;22.5;40.6
76046;BME280;64741;41.730;44.788;2022-11-21T11:24:43;994.6;;;22.5;40.9
76046;BME280;64741;41.730;44.788;2022-11-21T11:29:48;994.6;;;22.5;41.6
76046;BME280;64741;41.730;44.788;2022-11-21T11:34:45;994.6;;;22.6;42.9
76046;BME280;64741;41.730;44.788;2022-11-21T11:39:44;994.5;;;22.6;44
76046;BME280;64741;41.730;44.788;2022-11-21T11:44:35;994.5;;;22.6;44.9
76046;BME280;64741;41.730;44.788;2022-11-21T11:49:43;994.5;;;22.7;45.5
76046;BME280;64741;41.730;44.788;2022-11-21T11:54:46;994.5;;;22.7;45.8
76046;BME280;64741;41.730;44.788;2022-11-21T11:59:45;994.5;;;22.7;46.6
76046;BME280;64741;41.730;44.788;2022-11-21T12:04:45;994.5;;;22.8;46.8
76046;BME280;64741;41.730;44.788;2022-11-21T12:09:44;994.4;;;22.8;47.1
76046;BME280;64741;41.730;44.788;2022-11-21T12:14:47;994.4;;;22.8;47.5
76046;BME280;64741;41.730;44.788;2022-11-21T12:19:41;994.3;;;22.8;48
76046;BME280;64741;41.730;44.788;2022-11-21T12:24:45;994.4;;;22.8;48.3
76046;BME280;64741;41.730;44.788;2022-11-21T12:29:44;994.3;;;22.8;48.3
76046;BME280;64741;41.730;44.788;2022-11-21T12:34:51;994.3;;;22.8;48.3
76046;BME280;64741;41.730;44.788;2022-11-21T12:39:49;994.3;;;22.8;48
76046;BME280;64741;41.730;44.788;2022-11-21T12:44:35;994.2;;;22.8;47.5
76046;BME280;64741;41.730;44.788;2022-11-21T12:49:47;994.2;;;22.8;47
76046;BME280;64741;41.730;44.788;2022-11-21T12:54:39;994.2;;;22.8;46.6
76046;BME280;64741;41.730;44.788;2022-11-21T12:59:46;994.1;;;22.8;46.4
76046;BME280;64741;41.730;44.788;2022-11-21T13:04:41;994.1;;;22.8;46
76046;BME280;64741;41.730;44.788;2022-11-21T13:09:38;994.1;;;22.7;45.7
76046;BME280;64741;41.730;44.788;2022-11-21T13:14:43;994.1;;;22.7;45.4
76046;BME280;64741;41.730;44.788;2022-11-21T13:19:45;994.1;;;22.7;45.1
76046;BME280;64741;41.730;44.788;2022-11-21T13:24:53;994.2;;;22.7;44.9
76046;BME280;64741;41.730;44.788;2022-11-21T13:30:14;994.1;;;22.7;44.8
76046;BME280;64741;41.730;44.788;2022-11-21T13:34:33;994;;;22.6;44.9
76046;BME280;64741;41.730;44.788;2022-11-21T13:39:43;994;;;22.7;46.1
76046;BME280;64741;41.730;44.788;2022-11-21T13:44:37;993.9;;;22.7;46.8
76046;BME280;64741;41.730;44.788;2022-11-21T13:49:47;993.9;;;22.7;47.8
76046;BME280;64741;41.730;44.788;2022-11-21T13:55:04;993.9;;;22.7;48.6
76046;BME280;64741;41.730;44.788;2022-11-21T13:59:52;994;;;22.8;48.1
76046;BME280;64741;41.730;44.788;2022-11-21T14:04:50;993.9;;;22.8;47.6
76046;BME280;64741;41.730;44.788;2022-11-21T14:09:45;993.9;;;22.8;46.9
76046;BME280;64741;41.730;44.788;2022-11-21T14:14:46;993.9;;;22.8;46.3
76046;BME280;64741;41.730;44.788;2022-11-21T14:19:45;993.7;;;22.7;46
76046;BME280;64741;41.730;44.788;2022-11-21T14:24:49;993.7;;;22.7;45.7
76046;BME280;64741;41.730;44.788;2022-11-21T14:29:36;993.8;;;22.7;45.4
76046;BME280;64741;41.730;44.788;2022-11-21T14:34:47;993.9;;;22.7;45.2
76046;BME280;64741;41.730;44.788;2022-11-21T14:39:45;993.7;;;22.7;45.1
76046;BME280;64741;41.730;44.788;2022-11-21T14:44:47;993.7;;;22.7;45
76046;BME280;64741;41.730;44.788;2022-11-21T14:49:53;993.7;;;22.7;44.9
76046;BME280;64741;41.730;44.788;2022-11-21T14:54:45;993.7;;;22.7;44.8
76046;BME280;64741;41.730;44.788;2022-11-21T14:59:43;993.7;;;22.7;44.7
76046;BME280;64741;41.730;44.788;2022-11-21T15:04:46;993.6;;;22.8;44.6
76046;BME280;64741;41.730;44.788;2022-11-21T15:09:35;993.8;;;22.8;44.5
76046;BME280;64741;41.730;44.788;2022-11-21T15:14:47;993.9;;;22.8;44.4
76046;BME280;64741;41.730;44.788;2022-11-21T15:19:39;993.9;;;22.8;44.3
76046;BME280;64741;41.730;44.788;2022-11-21T15:24:45;993.9;;;22.8;44.2
76046;BME280;64741;41.730;44.788;2022-11-21T15:29:43;993.7;;;22.8;44.1
76046;BME280;64741;41.730;44.788;2022-11-21T15:34:45;993.7;;;22.8;44
76046;BME280;64741;41.730;44.788;2022-11-21T15:39:49;993.7;;;22.8;43.9
76046;BME280;64741;41.730;44.788;2022-11-21T15:44:55;993.6;;;22.8;43.8
76046;BME280;64741;41.730;44.788;2022-11-21T15:49:47;993.6;;;22.8;43.7
76046;BME280;64741;41.730;44.788;2022-11-21T15:54:47;993.5;;;22.9;43.6
76046;BME280;64741;41.730;44.788;2022-11-21T15:59:47;993.5;;;22.9;43.6
76046;BME280;64741;41.730;44.788;2022-11-21T16:04:35;993.4;;;22.9;43.6
76046;BME280;64741;41.730;44.788;2022-11-21T16:09:45;993.4;;;22.9;43.5
76046;BME280;64741;41.730;44.788;2022-11-21T16:14:43;993.6;;;22.9;43.4
76046;BME280;64741;41.730;44.788;2022-11-21T16:19:44;993.7;;;22.8;43.4
76046;BME280;64741;41.730;44.788;2022-11-21T16:24:45;993.6;;;22.9;43.3
76046;BME280;64741;41.730;44.788;2022-11-21T16:29:49;993.6;;;22.9;43.2
76046;BME280;64741;41.730;44.788;2022-11-21T16:34:49;993.6;;;22.9;43.2
76046;BME280;64741;41.730;44.788;2022-11-21T16:39:27;993.5;;;22.9;43.1
76046;BME280;64741;41.730;44.788;2022-11-21T16:44:45;993.4;;;22.9;43
76046;BME280;64741;41.730;44.788;2022-11-21T16:49:45;993.2;;;22.8;42.9
76046;BME280;64741;41.730;44.788;2022-11-21T16:54:47;993.2;;;22.8;42.9
76046;BME280;64741;41.730;44.788;2022-11-21T16:59:45;993.2;;;22.8;42.9
76046;BME280;64741;41.730;44.788;2022-11-21T17:04:47;993.3;;;22.8;42.9
76046;BME280;64741;41.730;44.788;2022-11-21T17:09:45;993.5;;;22.8;42.8
76046;BME280;64741;41.730;44.788;2022-11-21T17:14:45;993.6;;;22.8;42.8
76046;BME280;64741;41.730;44.788;2022-11-21T17:19:47;993.7;;;22.8;42.7
76046;BME280;64741;41.730;44.788;2022-11-21T17:24:47;993.4;;;22.9;42.6
76046;BME280;64741;41.730;44.788;2022-11-21T17:29:45;993.3;;;22.9;42.6
76046;BME280;64741;41.730;44.788;2022-11-21T17:34:45;993.3;;;22.9;42.5
76046;BME280;64741;41.730;44.788;2022-11-21T17:39:47;993.3;;;22.9;42.5
76046;BME280;64741;41.730;44.788;2022-11-21T17:44:49;993.3;;;22.9;42.4
76046;BME280;64741;41.730;44.788;2022-11-21T17:49:47;993.2;;;22.9;42.4
76046;BME280;64741;41.730;44.788;2022-11-21T17:54:45;993.1;;;22.9;42.3
76046;BME280;64741;41.730;44.788;2022-11-21T17:59:47;993.1;;;22.9;42.4
76046;BME280;64741;41.730;44.788;2022-11-21T18:04:45;993.1;;;22.9;42.5
76046;BME280;64741;41.730;44.788;2022-11-21T18:09:49;992.9;;;22.9;42.4
76046;BME280;64741;41.730;44.788;2022-11-21T18:14:47;993;;;22.9;42.3
76046;BME280;64741;41.730;44.788;2022-11-21T18:19:45;993;;;22.9;42.2
76046;BME280;64741;41.730;44.788;2022-11-21T18:24:47;993;;;22.9;41.9
76046;BME280;64741;41.730;44.788;2022-11-21T18:29:43;993.1;;;22.9;41.8
76046;BME280;64741;41.730;44.788;2022-11-21T18:34:43;993.1;;;22.8;41.7
76046;BME280;64741;41.730;44.788;2022-11-21T18:39:41;993.3;;;22.8;41.7
76046;BME280;64741;41.730;44.788;2022-11-21T18:44:45;993.2;;;22.8;41.6
76046;BME280;64741;41.730;44.788;2022-11-21T18:49:45;993.3;;;22.7;41.5
76046;BME280;64741;41.730;44.788;2022-11-21T18:54:45;993.4;;;22.7;41.5
76046;BME280;64741;41.730;44.788;2022-11-21T18:59:47;993.4;;;22.7;41.5
76046;BME280;64741;41.730;44.788;2022-11-21T19:04:49;993.4;;;22.6;41.6
76046;BME280;64741;41.730;44.788;2022-11-21T19:09:45;993.6;;;22.6;41.4
76046;BME280;64741;41.730;44.788;2022-11-21T19:14:45;993.6;;;22.6;41.4
76046;BME280;64741;41.730;44.788;2022-11-21T19:19:46;993.4;;;22.6;41.4
76046;BME280;64741;41.730;44.788;2022-11-21T19:24:47;993.3;;;22.5;41.3
76046;BME280;64741;41.730;44.788;2022-11-21T19:29:45;993.4;;;22.5;41.4
76046;BME280;64741;41.730;44.788;2022-11-21T19:34:47;993.4;;;22.5;41.4
76046;BME280;64741;41.730;44.788;2022-11-21T19:39:47;993.4;;;22.5;41.4
76046;BME280;64741;41.730;44.788;2022-11-21T19:44:43;993.3;;;22.5;41.2
76046;BME280;64741;41.730;44.788;2022-11-21T19:49:45;993.2;;;22.5;41.2
76046;BME280;64741;41.730;44.788;2022-11-21T19:54:45;993.2;;;22.5;41.3
76046;BME280;64741;41.730;44.788;2022-11-21T19:59:45;993.3;;;22.5;41.2
76046;BME280;64741;41.730;44.788;2022-11-21T20:04:11;993.2;;;22.4;41.1
76046;BME280;64741;41.730;44.788;2022-11-21T20:09:45;993.1;;;22.4;41.1
76046;BME280;64741;41.730;44.788;2022-11-21T20:14:43;993;;;22.4;41.2
76046;BME280;64741;41.730;44.788;2022-11-21T20:19:43;993.1;;;22.4;41.3
76046;BME280;64741;41.730;44.788;2022-11-21T20:24:45;993;;;22.5;41.3
76046;BME280;64741;41.730;44.788;2022-11-21T20:29:43;992.8;;;22.5;41.3
76046;BME280;64741;41.730;44.788;2022-11-21T20:34:41;992.7;;;22.5;41.2
76046;BME280;64741;41.730;44.788;2022-11-21T20:39:39;992.8;;;22.5;41.2
76046;BME280;64741;41.730;44.788;2022-11-21T20:44:41;992.8;;;22.5;41.2
76046;BME280;64741;41.730;44.788;2022-11-21T20:49:43;992.8;;;22.5;41.1
76046;BME280;64741;41.730;44.788;2022-11-21T20:54:45;992.9;;;22.5;41.1
76046;BME280;64741;41.730;44.788;2022-11-21T20:59:41;992.9;;;22.5;41.1
76046;BME280;64741;41.730;44.788;2022-11-21T21:04:43;992.8;;;22.5;41
76046;BME280;64741;41.730;44.788;2022-11-21T21:09:43;992.8;;;22.5;40.9
76046;BME280;64741;41.730;44.788;2022-11-21T21:14:45;992.8;;;22.5;41
76046;BME280;64741;41.730;44.788;2022-11-21T21:19:47;992.8;;;22.5;41
76046;BME280;64741;41.730;44.788;2022-11-21T21:24:45;992.5;;;22.5;41
76046;BME280;64741;41.730;44.788;2022-11-21T21:29:45;992.4;;;22.5;40.8
76046;BME280;64741;41.730;44.788;2022-11-21T21:34:45;992.6;;;22.5;40.8
76046;BME280;64741;41.730;44.788;2022-11-21T21:39:49;992.8;;;22.4;40.7
76046;BME280;64741;41.730;44.788;2022-11-21T21:44:47;992.8;;;22.4;40.7
76046;BME280;64741;41.730;44.788;2022-11-21T21:49:45;992.7;;;22.4;40.7
76046;BME280;64741;41.730;44.788;2022-11-21T21:54:41;992.5;;;22.4;40.6
76046;BME280;64741;41.730;44.788;2022-11-21T21:59:41;992.5;;;22.4;40.6
76046;BME280;64741;41.730;44.788;2022-11-21T22:04:43;992.6;;;22.4;40.7
76046;BME280;64741;41.730;44.788;2022-11-21T22:09:43;992.7;;;22.4;40.5
76046;BME280;64741;41.730;44.788;2022-11-21T22:14:37;992.8;;;22.4;40.5
76046;BME280;64741;41.730;44.788;2022-11-21T22:19:37;992.9;;;22.4;40.4
76046;BME280;64741;41.730;44.788;2022-11-21T22:24:39;992.7;;;22.4;40.4
76046;BME280;64741;41.730;44.788;2022-11-21T22:29:43;992.7;;;22.4;40.6
76046;BME280;64741;41.730;44.788;2022-11-21T22:34:45;992.7;;;22.4;40.8
76046;BME280;64741;41.730;44.788;2022-11-21T22:39:43;992.7;;;22.4;40.9
76046;BME280;64741;41.730;44.788;2022-11-21T22:44:41;992.8;;;22.4;41.1
76046;BME280;64741;41.730;44.788;2022-11-21T22:49:41;992.8;;;22.4;41.2
76046;BME280;64741;41.730;44.788;2022-11-21T22:54:43;992.9;;;22.4;41.4
76046;BME280;64741;41.730;44.788;2022-11-21T22:59:39;992.8;;;22.4;41.3
76046;BME280;64741;41.730;44.788;2022-11-21T23:04:39;992.6;;;22.4;41.3
76046;BME280;64741;41.730;44.788;2022-11-21T23:09:41;992.7;;;22.3;41.2
76046;BME280;64741;41.730;44.788;2022-11-21T23:14:45;992.8;;;22.3;41.1
76046;BME280;64741;41.730;44.788;2022-11-21T23:19:43;992.8;;;22.3;41.2
76046;BME280;64741;41.730;44.788;2022-11-21T23:24:43;992.6;;;22.3;41.2
76046;BME280;64741;41.730;44.788;2022-11-21T23:29:31;992.7;;;22.3;41.1
76046;BME280;64741;41.730;44.788;2022-11-21T23:34:37;992.6;;;22.3;41.2
76046;BME280;64741;41.730;44.788;2022-11-21T23:39:39;992.5;;;22.3;41.2
76046;BME280;64741;41.730;44.788;2022-11-21T23:44:39;992.3;;;22.3;41
76046;BME280;64741;41.730;44.788;2022-11-21T23:49:45;992.3;;;22.3;41.1
76046;BME280;64741;41.730;44.788;2022-11-21T23:54:41;992.3;;;22.2;41
76046;BME280;64741;41.730;44.788;2022-11-21T23:59:45;992.5;;;22.2;41
